Time;durP1;ratioP1;P1;durP2;ratioP2;P2;SDS_P1;SDS_P2;PMS_P1;PMS_P2;Temp;Humidity;BMP_temperature;BMP_pressure;BME280_temperature;BME280_humidity;BME280_pressure;Samples;Min_cycle;Max_cycle;Signal;HPM_P1;HPM_P2
2022/06/20 00:01:47;;;;;;;7.97;5.22;;;;;;;13.76;100.00;101336.56;5252382;28;20056;-61
2022/06/20 00:04:19;;;;;;;4.60;4.20;;;;;;;13.69;100.00;101335.16;5280085;28;20065;-61
2022/06/20 00:06:50;;;;;;;4.57;3.90;;;;;;;13.81;100.00;101361.00;5257801;28;20096;-62
2022/06/20 00:09:20;;;;;;;4.97;4.38;;;;;;;13.67;100.00;101365.28;5256852;28;20024;-62
2022/06/20 00:11:51;;;;;;;5.18;4.70;;;;;;;13.78;100.00;101415.00;5282973;28;20020;-62
2022/06/20 00:14:22;;;;;;;8.50;6.38;;;;;;;13.87;100.00;101464.97;5264597;28;20128;-62
2022/06/20 00:16:52;;;;;;;8.63;4.00;;;;;;;13.92;100.00;101503.03;5274237;28;20033;-60
2022/06/20 00:19:23;;;;;;;3.97;3.47;;;;;;;14.00;100.00;101558.75;5270000;28;20070;-62
2022/06/20 00:21:53;;;;;;;6.35;4.45;;;;;;;13.87;100.00;101551.88;5260841;28;20031;-62
2022/06/20 00:24:24;;;;;;;4.57;3.75;;;;;;;14.06;100.00;101591.13;5277314;28;20021;-62
2022/06/20 00:26:56;;;;;;;3.70;3.40;;;;;;;14.00;100.00;101581.28;5269519;28;20143;-60
2022/06/20 00:29:28;;;;;;;7.35;4.72;;;;;;;14.03;100.00;101569.91;5257794;28;20023;-62
2022/06/20 00:31:58;;;;;;;4.63;4.38;;;;;;;14.10;100.00;101561.53;5281977;28;20025;-62
2022/06/20 00:34:29;;;;;;;8.57;3.70;;;;;;;14.14;100.00;101533.59;5266337;28;20020;-61
2022/06/20 00:37:00;;;;;;;7.18;3.78;;;;;;;14.12;100.00;101514.03;5273732;28;20031;-61
2022/06/20 00:39:31;;;;;;;4.82;4.47;;;;;;;14.05;100.00;101485.47;5268997;28;20095;-61
2022/06/20 00:42:02;;;;;;;4.22;3.47;;;;;;;14.09;100.00;101468.38;5277695;28;20480;-61
2022/06/20 00:44:36;;;;;;;6.38;4.70;;;;;;;14.08;100.00;101447.75;5258591;28;20027;-62
2022/06/20 00:47:12;;;;;;;11.15;6.57;;;;;;;14.11;100.00;101430.09;5266722;28;20024;-63
2022/06/20 00:49:58;;;;;;;5.07;4.55;;;;;;;14.12;100.00;101410.00;5257962;28;20020;-62
2022/06/20 00:52:31;;;;;;;12.73;4.90;;;;;;;14.13;100.00;101400.78;5259333;28;20036;-62
2022/06/20 00:55:44;;;;;;;5.00;2.70;;;;;;;14.10;100.00;101385.81;5269799;28;20038;-62
2022/06/20 00:58:40;;;;;;;8.55;4.00;;;;;;;13.99;100.00;101361.59;5183838;28;20120;-62
2022/06/20 01:01:14;;;;;;;7.13;4.53;;;;;;;13.98;100.00;101359.97;5193124;28;20115;-61
2022/06/20 01:03:50;;;;;;;4.60;3.88;;;;;;;13.89;100.00;101351.50;5263015;28;20050;-63
2022/06/20 01:06:30;;;;;;;8.38;3.78;;;;;;;13.86;100.00;101358.28;5262728;28;20034;-62
2022/06/20 01:09:05;;;;;;;;;;;;;;;13.81;100.00;101349.31;5256646;28;20108;-62
2022/06/20 01:11:50;;;;;;;6.63;4.82;;;;;;;13.73;100.00;101352.53;5282053;28;19908;-61
2022/06/20 01:14:37;;;;;;;10.73;5.22;;;;;;;13.65;100.00;101339.47;5261838;28;20028;-62
2022/06/20 01:17:27;;;;;;;5.28;4.25;;;;;;;13.44;100.00;101317.69;5253783;28;20033;-63
2022/06/20 01:20:17;;;;;;;11.27;4.35;;;;;;;13.54;100.00;101340.53;5261933;28;20356;-61
2022/06/20 01:23:04;;;;;;;10.18;4.82;;;;;;;13.50;100.00;101341.03;5266098;28;20024;-63
2022/06/20 01:25:41;;;;;;;8.82;4.90;;;;;;;13.48;100.00;101336.97;5251285;28;20016;-62
2022/06/20 01:28:19;;;;;;;8.95;4.65;;;;;;;13.47;100.00;101340.75;5262042;28;20024;-62
2022/06/20 01:30:50;;;;;;;5.88;5.20;;;;;;;13.45;100.00;101332.88;5269664;28;20023;-61
2022/06/20 01:33:23;;;;;;;7.30;6.20;;;;;;;13.47;100.00;101325.28;5270994;28;20035;-60
2022/06/20 01:38:45;;;;;;;5.97;5.43;;;;;;;13.44;100.00;101309.53;5266547;28;20059;-62
2022/06/20 01:44:06;;;;;;;9.38;5.22;;;;;;;13.48;100.00;101301.69;5261670;28;20062;-62
2022/06/20 01:46:37;;;;;;;5.43;5.03;;;;;;;13.43;100.00;101291.63;5263712;28;20028;-62
2022/06/20 01:49:15;;;;;;;5.45;4.57;;;;;;;13.43;100.00;101283.50;5254551;28;20030;-61
2022/06/20 01:52:01;;;;;;;5.78;5.35;;;;;;;13.46;100.00;101282.97;5280356;28;20048;-62
2022/06/20 01:54:37;;;;;;;5.75;5.22;;;;;;;13.46;100.00;101288.38;5263868;28;20082;-61
2022/06/20 01:57:10;;;;;;;5.00;4.60;;;;;;;13.45;100.00;101297.59;5254825;28;20025;-62
2022/06/20 01:59:52;;;;;;;6.63;6.07;;;;;;;13.45;100.00;101300.31;5281118;28;20044;-62
2022/06/20 02:02:23;;;;;;;7.88;4.82;;;;;;;13.45;100.00;101308.47;5262085;28;20032;-61
2022/06/20 02:04:54;;;;;;;4.18;3.80;;;;;;;13.49;100.00;101325.84;5269867;28;20055;-62
2022/06/20 02:07:24;;;;;;;4.88;4.47;;;;;;;13.42;100.00;101300.84;5266802;28;20392;-60
2022/06/20 02:09:55;;;;;;;3.05;2.88;;;;;;;13.40;100.00;101292.16;5275283;28;20024;-62
2022/06/20 02:12:29;;;;;;;4.88;4.47;;;;;;;13.41;100.00;101293.78;5275242;28;20484;-61
2022/06/20 02:14:59;;;;;;;7.22;4.40;;;;;;;13.31;100.00;101269.31;5265520;28;20519;-62
2022/06/20 02:17:41;;;;;;;3.72;3.42;;;;;;;13.38;100.00;101286.16;5271785;28;20020;-62
2022/06/20 02:20:17;;;;;;;9.13;4.25;;;;;;;13.37;100.00;101291.84;5270898;28;20035;-61
2022/06/20 02:22:50;;;;;;;6.28;3.13;;;;;;;13.33;100.00;101293.47;5255389;28;20024;-61
2022/06/20 02:25:27;;;;;;;9.15;5.60;;;;;;;13.29;100.00;101282.31;5271321;28;20020;-61
2022/06/20 02:28:12;;;;;;;5.20;4.47;;;;;;;13.26;100.00;101279.34;5263241;28;20020;-61
2022/06/20 02:30:43;;;;;;;8.82;4.53;;;;;;;13.29;100.00;101260.63;5265456;28;20077;-61
2022/06/20 02:33:19;;;;;;;6.10;3.17;;;;;;;13.27;100.00;101251.97;5254671;28;20033;-61
2022/06/20 02:35:51;;;;;;;5.57;3.80;;;;;;;13.23;100.00;101250.84;5280392;28;20035;-62
2022/06/20 02:38:22;;;;;;;9.32;3.05;;;;;;;13.20;100.00;101259.50;5261988;28;20407;-61
2022/06/20 02:40:55;;;;;;;7.20;3.55;;;;;;;13.21;100.00;101279.31;5271697;28;20111;-60
2022/06/20 02:43:36;;;;;;;5.00;2.88;;;;;;;13.22;100.00;101284.47;5254645;28;20400;-62
2022/06/20 02:46:13;;;;;;;4.70;4.30;;;;;;;13.08;100.00;101256.16;5260444;28;20580;-61
2022/06/20 02:48:47;;;;;;;5.60;3.50;;;;;;;13.15;100.00;101281.16;5268441;28;20043;-61
2022/06/20 02:51:24;;;;;;;4.35;3.88;;;;;;;13.14;100.00;101301.19;5258862;28;20012;-62
2022/06/20 02:53:59;;;;;;;8.65;4.10;;;;;;;13.12;100.00;101303.34;5307240;22;20036;-60
2022/06/20 02:56:33;;;;;;;7.72;4.88;;;;;;;13.08;100.00;101292.22;5243000;28;20028;-59
2022/06/20 02:59:18;;;;;;;13.18;4.20;;;;;;;13.08;100.00;101304.97;5230548;28;20071;-60
2022/06/20 03:02:00;;;;;;;9.57;4.75;;;;;;;13.05;100.00;101303.59;5220762;28;20019;-61
2022/06/20 03:04:35;;;;;;;8.50;4.30;;;;;;;13.03;100.00;101315.75;5216854;28;20113;-59
2022/06/20 03:07:16;;;;;;;5.43;4.78;;;;;;;13.06;100.00;101320.66;5227985;28;20043;-61
2022/06/20 03:09:52;;;;;;;8.60;5.47;;;;;;;13.05;100.00;101338.84;5230494;28;20140;-59
2022/06/20 03:12:23;;;;;;;3.25;3.15;;;;;;;12.95;100.00;101308.13;5247289;28;20101;-59
2022/06/20 03:14:58;;;;;;;3.97;3.72;;;;;;;12.93;100.00;101318.41;5229665;28;20028;-60
2022/06/20 03:17:29;;;;;;;4.15;3.75;;;;;;;13.03;100.00;101346.41;5246555;28;20144;-61
2022/06/20 03:20:04;;;;;;;5.30;4.78;;;;;;;13.02;100.00;101333.09;5246986;28;20024;-60
2022/06/20 03:22:40;;;;;;;4.25;3.83;;;;;;;13.00;100.00;101333.38;5230419;28;20432;-59
2022/06/20 03:25:16;;;;;;;4.88;3.92;;;;;;;12.98;100.00;101330.13;5229925;28;20446;-61
2022/06/20 03:27:51;;;;;;;4.57;4.18;;;;;;;12.85;100.00;101325.94;5248144;28;20024;-59
2022/06/20 03:30:33;;;;;;;8.18;4.00;;;;;;;12.95;100.00;101357.75;5229612;28;20448;-59
2022/06/20 03:33:07;;;;;;;6.90;3.80;;;;;;;12.95;100.00;101365.88;5229484;28;20024;-59
2022/06/20 03:35:39;;;;;;;5.70;4.78;;;;;;;12.89;100.00;101368.81;5229661;28;20085;-59
2022/06/20 03:38:12;;;;;;;11.45;5.05;;;;;;;12.84;100.00;101364.97;5247772;28;20054;-60
2022/06/20 03:40:43;;;;;;;5.03;4.53;;;;;;;12.85;100.00;101369.31;5229644;28;20028;-61
2022/06/20 03:43:17;;;;;;;5.55;3.97;;;;;;;12.87;100.00;101373.66;5230221;28;20031;-60
2022/06/20 03:46:00;;;;;;;5.68;5.25;;;;;;;12.88;100.00;101367.16;5229678;28;20566;-60
2022/06/20 03:48:47;;;;;;;3.38;3.10;;;;;;;12.91;100.00;101388.34;5229978;28;20488;-61
2022/06/20 03:51:21;;;;;;;4.28;3.85;;;;;;;12.93;100.00;101380.78;5263729;28;20024;-61
2022/06/20 03:54:09;;;;;;;4.80;4.25;;;;;;;12.94;100.00;101385.13;5247636;28;20053;-62
2022/06/20 03:56:43;;;;;;;21.83;4.45;;;;;;;13.02;100.00;101395.47;5230454;28;20058;-60
2022/06/20 03:59:25;;;;;;;6.30;5.07;;;;;;;12.97;100.00;101382.72;5246473;28;20033;-58
2022/06/20 04:02:18;;;;;;;9.35;4.85;;;;;;;13.06;100.00;101388.44;5230021;28;20020;-60
2022/06/20 04:05:16;;;;;;;3.55;3.13;;;;;;;13.10;100.00;101408.56;5229399;28;20021;-59
2022/06/20 04:07:55;;;;;;;9.35;4.78;;;;;;;13.11;100.00;101410.19;5229639;28;20047;-59
2022/06/20 04:13:50;;;;;;;3.47;3.17;;;;;;;13.12;100.00;101395.56;5246991;28;20164;-59
2022/06/20 04:16:37;;;;;;;5.50;2.75;;;;;;;13.15;100.00;101411.31;5229249;28;20028;-60
2022/06/20 04:19:14;;;;;;;4.57;4.13;;;;;;;13.17;100.00;101418.16;5229060;28;20032;-65
2022/06/20 04:21:54;;;;;;;6.40;3.90;;;;;;;13.15;100.00;101409.44;5228952;28;20024;-59
2022/06/20 04:24:39;;;;;;;6.63;3.95;;;;;;;13.23;100.00;101418.19;5245350;28;20115;-60
2022/06/20 04:27:19;;;;;;;8.10;5.13;;;;;;;13.26;100.00;101415.78;5247137;28;20048;-59
2022/06/20 04:30:00;;;;;;;4.60;3.05;;;;;;;13.30;100.00;101419.56;5228960;28;20028;-60
2022/06/20 04:32:57;;;;;;;10.88;3.38;;;;;;;13.35;100.00;101432.38;5245503;28;20496;-58
2022/06/20 04:35:33;;;;;;;4.18;4.00;;;;;;;13.37;100.00;101436.44;5228468;28;20059;-60
2022/06/20 04:38:16;;;;;;;5.43;4.53;;;;;;;13.37;100.00;101432.91;5228899;28;20043;-60
2022/06/20 04:40:46;;;;;;;11.68;4.38;;;;;;;13.40;100.00;101435.94;5224103;28;20237;-61
2022/06/20 04:43:29;;;;;;;5.75;5.07;;;;;;;13.42;100.00;101436.50;5249032;28;20021;-62
2022/06/20 04:46:18;;;;;;;9.98;4.00;;;;;;;13.44;100.00;101439.78;5224342;28;20028;-59
2022/06/20 04:48:50;;;;;;;9.07;4.75;;;;;;;13.45;100.00;101446.81;5224622;28;20029;-60
2022/06/20 04:51:32;;;;;;;6.57;4.40;;;;;;;13.44;100.00;101442.47;5207390;28;20436;-60
2022/06/20 04:54:04;;;;;;;6.18;5.20;;;;;;;13.42;100.00;101420.22;5207490;28;20021;-60
2022/06/20 04:56:35;;;;;;;8.82;4.18;;;;;;;13.48;100.00;101431.94;5207967;28;20033;-61
2022/06/20 04:59:12;;;;;;;11.02;5.15;;;;;;;13.50;100.00;101433.31;5225787;28;20047;-59
2022/06/20 05:01:43;;;;;;;8.20;5.20;;;;;;;13.44;100.00;101439.78;5207339;28;20032;-61
2022/06/20 05:04:22;;;;;;;5.13;4.63;;;;;;;13.51;100.00;101453.94;5206744;28;20511;-59
2022/06/20 05:06:55;;;;;;;5.38;4.45;;;;;;;13.49;100.00;101445.22;5207640;28;20025;-60
2022/06/20 05:10:07;;;;;;;4.78;4.38;;;;;;;13.55;100.00;101448.00;5207731;28;20047;-59
2022/06/20 05:13:12;;;;;;;7.18;4.40;;;;;;;13.58;100.00;101458.28;5224019;28;20385;-60
2022/06/20 05:15:46;;;;;;;6.90;4.57;;;;;;;13.56;100.00;101458.59;5224421;28;20062;-61
2022/06/20 05:18:34;;;;;;;3.95;3.63;;;;;;;13.59;100.00;101452.59;5224207;28;20435;-62
2022/06/20 05:21:32;;;;;;;6.88;4.97;;;;;;;13.61;100.00;101455.06;5207313;28;20070;-58
2022/06/20 05:24:10;;;;;;;7.18;4.45;;;;;;;13.60;100.00;101450.72;5204606;28;20044;-60
2022/06/20 05:26:44;;;;;;;3.03;2.88;;;;;;;13.56;100.00;101433.34;5240519;28;20029;-57
2022/06/20 05:29:31;;;;;;;4.82;4.32;;;;;;;13.58;100.00;101431.16;5225225;28;20078;-58
2022/06/20 05:32:06;;;;;;;4.85;4.38;;;;;;;13.73;100.00;101461.13;5206242;28;20405;-59
2022/06/20 05:34:47;;;;;;;7.25;4.07;;;;;;;13.77;100.00;101446.75;5224676;28;20028;-60
2022/06/20 05:37:33;;;;;;;4.40;3.55;;;;;;;13.75;100.00;101446.22;5240395;28;20025;-62
2022/06/20 05:40:08;;;;;;;5.68;5.28;;;;;;;13.80;100.00;101454.38;5223786;28;20649;-60
2022/06/20 05:42:39;;;;;;;7.35;4.82;;;;;;;13.88;100.00;101455.75;5220503;28;20025;-60
2022/06/20 05:45:20;;;;;;;5.35;4.97;;;;;;;13.95;100.00;101448.19;5219980;28;20114;-60
2022/06/20 05:47:53;;;;;;;7.85;4.55;;;;;;;14.01;100.00;101441.72;5240642;28;20112;-62
2022/06/20 05:50:46;;;;;;;6.22;4.57;;;;;;;14.15;100.00;101448.28;5223369;28;20105;-62
2022/06/20 05:53:25;;;;;;;8.82;3.85;;;;;;;14.15;100.00;101440.13;5207294;28;20489;-63
2022/06/20 05:55:58;;;;;;;8.23;5.40;;;;;;;14.40;100.00;101471.22;5207136;28;20033;-62
2022/06/20 05:58:34;;;;;;;3.67;3.40;;;;;;;14.52;100.00;101469.91;5207058;28;20024;-62
2022/06/20 06:01:15;;;;;;;4.55;4.18;;;;;;;14.71;100.00;101470.25;5223483;28;20021;-63
2022/06/20 06:03:57;;;;;;;6.93;4.35;;;;;;;14.75;100.00;101468.63;5206798;28;20017;-63
2022/06/20 06:06:39;;;;;;;3.90;3.60;;;;;;;14.84;100.00;101472.44;5223535;28;20435;-63
2022/06/20 06:09:19;;;;;;;3.42;2.47;;;;;;;14.78;100.00;101478.94;5240159;28;20077;-62
2022/06/20 06:12:03;;;;;;;6.57;4.07;;;;;;;14.83;100.00;101478.16;5240232;28;20029;-62
2022/06/20 06:14:48;;;;;;;16.90;4.55;;;;;;;14.96;100.00;101483.09;5206256;28;20064;-62
2022/06/20 06:17:32;;;;;;;3.35;3.05;;;;;;;15.14;100.00;101481.72;5210907;28;20025;-62
2022/06/20 06:20:10;;;;;;;9.98;5.13;;;;;;;15.30;100.00;101477.13;5227546;28;20119;-62
2022/06/20 06:22:43;;;;;;;3.55;3.25;;;;;;;15.71;100.00;101491.53;5209507;28;20027;-62
2022/06/20 06:25:36;;;;;;;4.28;3.50;;;;;;;15.99;100.00;101488.19;5224817;28;20116;-62
2022/06/20 06:28:24;;;;;;;6.53;3.20;;;;;;;16.35;100.00;101496.25;5243656;28;20029;-62
2022/06/20 06:31:14;;;;;;;6.82;4.15;;;;;;;16.47;100.00;101491.28;5210561;28;20025;-62
2022/06/20 06:33:59;;;;;;;8.45;3.05;;;;;;;16.75;100.00;101496.06;5210122;28;20051;-63
2022/06/20 06:36:39;;;;;;;3.50;3.08;;;;;;;16.88;100.00;101498.19;5243814;28;20057;-62
2022/06/20 06:39:15;;;;;;;8.90;4.10;;;;;;;16.86;100.00;101494.91;5228370;28;20435;-62
2022/06/20 06:41:48;;;;;;;5.28;3.47;;;;;;;16.97;100.00;101490.22;5228217;28;20025;-63
2022/06/20 06:44:35;;;;;;;3.03;2.65;;;;;;;17.12;100.00;101494.75;5210256;28;20493;-63
2022/06/20 06:47:17;;;;;;;2.58;2.38;;;;;;;17.09;100.00;101500.75;5210210;28;20060;-62
2022/06/20 06:49:53;;;;;;;11.15;3.50;;;;;;;16.98;100.00;101493.75;5210161;28;20044;-62
2022/06/20 06:52:29;;;;;;;5.88;2.22;;;;;;;16.93;100.00;101500.06;5243499;28;20266;-62
2022/06/20 06:55:17;;;;;;;4.35;3.97;;;;;;;16.84;100.00;101486.19;5241861;28;20053;-62
2022/06/20 06:58:15;;;;;;;5.60;2.35;;;;;;;17.00;100.00;101492.38;5210159;28;20380;-62
2022/06/20 07:00:52;;;;;;;7.50;2.85;;;;;;;16.91;100.00;101505.00;5182065;28;20409;-61
2022/06/20 07:03:25;;;;;;;4.20;2.42;;;;;;;16.83;100.00;101505.56;5209595;28;20021;-62
2022/06/20 07:06:03;;;;;;;2.22;2.13;;;;;;;16.82;100.00;101502.03;5226340;28;20025;-62
2022/06/20 07:08:42;;;;;;;4.55;2.15;;;;;;;16.72;100.00;101507.56;5243577;28;20112;-62
2022/06/20 07:11:24;;;;;;;2.40;2.30;;;;;;;16.62;100.00;101521.22;5227863;28;20053;-62
2022/06/20 07:14:00;;;;;;;6.35;2.78;;;;;;;16.53;100.00;101515.53;5241447;28;20029;-62
2022/06/20 07:16:52;;;;;;;3.85;3.60;;;;;;;16.42;100.00;101524.03;5225999;28;20082;-62
2022/06/20 07:19:24;;;;;;;2.92;2.72;;;;;;;16.31;100.00;101533.34;5226405;28;20044;-61
2022/06/20 07:21:57;;;;;;;12.98;3.70;;;;;;;16.25;100.00;101545.34;5243209;28;20113;-61
2022/06/20 07:24:31;;;;;;;2.95;2.53;;;;;;;16.15;100.00;101549.75;5209497;28;20025;-61
2022/06/20 07:27:23;;;;;;;4.95;2.85;;;;;;;16.14;100.00;101556.28;5208688;28;20064;-61
2022/06/20 07:30:02;;;;;;;6.05;2.70;;;;;;;16.07;100.00;101546.75;5226121;28;20503;-61
2022/06/20 07:32:45;;;;;;;2.38;2.28;;;;;;;16.11;100.00;101551.38;5209536;28;20044;-62
2022/06/20 07:35:21;;;;;;;11.07;3.45;;;;;;;16.64;100.00;101545.50;5242214;28;20036;-60
2022/06/20 07:38:13;;;;;;;1.85;1.85;;;;;;;17.09;100.00;101555.34;5208990;28;20123;-62
2022/06/20 07:41:18;;;;;;;1.95;1.85;;;;;;;17.49;100.00;101559.72;5242324;28;20017;-62
2022/06/20 07:44:26;;;;;;;3.33;2.60;;;;;;;17.51;100.00;101563.78;5208542;28;20056;-60
2022/06/20 07:47:04;;;;;;;2.15;2.05;;;;;;;17.69;100.00;101561.47;5222867;28;20564;-62
2022/06/20 07:49:54;;;;;;;3.47;2.50;;;;;;;18.20;100.00;101559.88;5225506;28;20025;-62
2022/06/20 07:52:39;;;;;;;4.00;2.30;;;;;;;18.74;100.00;101550.53;5242128;28;20032;-62
2022/06/20 07:55:19;;;;;;;1.90;1.80;;;;;;;19.25;100.00;101552.53;5208606;28;20393;-62
2022/06/20 07:57:59;;;;;;;2.38;1.85;;;;;;;19.69;100.00;101551.28;5226474;28;20025;-62
2022/06/20 08:00:36;;;;;;;2.67;2.03;;;;;;;20.06;100.00;101539.41;5242173;28;20060;-62
2022/06/20 08:03:16;;;;;;;1.90;1.80;;;;;;;20.02;99.11;101547.41;5208628;28;20036;-62
2022/06/20 08:05:54;;;;;;;2.30;2.10;;;;;;;20.02;99.24;101546.59;5208504;28;20485;-62
2022/06/20 08:08:47;;;;;;;4.82;4.53;;;;;;;20.37;98.39;101556.06;5225480;28;20056;-62
2022/06/20 08:11:42;;;;;;;2.88;2.40;;;;;;;20.39;96.06;101554.69;5226194;28;20021;-63
2022/06/20 08:14:22;;;;;;;2.72;2.63;;;;;;;20.47;96.84;101555.91;5208184;28;20025;-62
2022/06/20 08:16:54;;;;;;;;;;;;;;;20.02;99.34;101552.06;5225516;28;20070;-63
2022/06/20 08:19:25;;;;;;;3.72;3.53;;;;;;;19.19;100.00;101559.19;5208319;28;19909;-63
2022/06/20 08:22:08;;;;;;;15.45;4.10;;;;;;;18.46;100.00;101563.16;5208264;28;20052;-63
2022/06/20 08:24:48;;;;;;;3.78;3.47;;;;;;;18.39;100.00;101564.63;5239202;28;20513;-62
2022/06/20 08:27:42;;;;;;;;;;;;;;;18.08;100.00;101564.94;5225744;28;20456;-62
2022/06/20 08:31:02;;;;;;;4.40;4.10;;;;;;;18.04;100.00;101571.28;5205420;28;19916;-63
2022/06/20 08:33:47;;;;;;;7.03;4.22;;;;;;;18.76;100.00;101564.75;5177994;28;20071;-62
2022/06/20 08:36:20;;;;;;;3.38;2.65;;;;;;;19.33;100.00;101571.03;5226266;28;20767;-61
2022/06/20 08:39:13;;;;;;;2.58;2.47;;;;;;;19.46;92.41;101567.53;5224859;28;20077;-62
2022/06/20 08:42:05;;;;;;;2.33;2.22;;;;;;;19.68;92.08;101574.31;5225314;28;20032;-62
2022/06/20 08:44:47;;;;;;;3.03;2.58;;;;;;;20.11;91.90;101581.25;5224976;28;20024;-63
2022/06/20 08:47:37;;;;;;;4.70;2.83;;;;;;;20.63;89.26;101576.41;5225267;28;20037;-62
2022/06/20 08:50:25;;;;;;;;;;;;;;;20.92;89.03;101569.75;5225935;28;20402;-63
2022/06/20 08:52:55;;;;;;;;;;;;;;;21.28;86.48;101567.88;5232148;23;19921;-63
2022/06/20 08:55:26;;;;;;;;;;;;;;;21.35;85.63;101583.94;5209397;28;19935;-61
2022/06/20 08:58:03;;;;;;;;;;;;;;;21.02;85.25;101583.28;5225398;28;19909;-61
2022/06/20 09:00:43;;;;;;;;;;;;;;;20.37;87.19;101595.31;5208836;28;20003;-61
2022/06/20 09:03:23;;;;;;;;;;;;;;;20.39;86.36;101592.28;5225136;28;19913;-62
2022/06/20 09:06:05;;;;;;;;;;;;;;;20.02;86.88;101599.50;5225371;28;19908;-62
2022/06/20 09:08:45;;;;;;;;;;;;;;;19.58;87.98;101604.66;5208403;28;19909;-63
2022/06/20 09:11:24;;;;;;;;;;;;;;;19.32;91.70;101602.28;5225319;28;20387;-61
2022/06/20 09:13:55;;;;;;;;;;;;;;;19.65;92.92;101605.88;5226035;28;20437;-60
2022/06/20 09:16:48;;;;;;;;;;;;;;;20.21;91.89;101602.19;5225116;28;19909;-60
2022/06/20 09:19:27;;;;;;;;;;;;;;;20.52;89.36;101605.97;5217998;28;19995;-62
2022/06/20 09:22:11;;;;;;;;;;;;;;;20.38;90.11;101609.84;5208206;28;20372;-60
2022/06/20 09:24:42;;;;;;;;;;;;;;;20.36;90.21;101610.13;5207767;28;19987;-60
2022/06/20 09:27:18;;;;;;;;;;;;;;;20.09;90.77;101610.09;5224670;28;20406;-61
2022/06/20 09:29:55;;;;;;;;;;;;;;;19.96;93.77;101611.66;5208220;28;20352;-61
2022/06/20 09:32:46;;;;;;;;;;;;;;;19.97;94.23;101613.28;5224929;28;19909;-61
2022/06/20 09:35:30;;;;;;;;;;;;;;;20.17;93.48;101614.88;5225753;28;19913;-60
2022/06/20 09:38:26;;;;;;;;;;;;;;;20.14;93.12;101612.75;5224901;28;19913;-59
2022/06/20 09:41:16;;;;;;;;;;;;;;;20.10;88.59;101611.72;5224541;28;20394;-59
2022/06/20 09:43:50;;;;;;;;;;;;;;;20.49;88.61;101614.03;5207991;28;20449;-61
2022/06/20 09:46:23;;;;;;;;;;;;;;;20.81;85.40;101622.13;5224420;28;19920;-59
2022/06/20 09:49:00;;;;;;;;;;;;;;;20.83;85.38;101617.16;5226320;28;20366;-61
2022/06/20 09:51:37;;;;;;;;;;;;;;;20.81;85.49;101618.56;5227897;28;20059;-60
2022/06/20 09:54:28;;;;;;;;;;;;;;;20.61;85.78;101613.50;5228282;28;19960;-59
2022/06/20 09:57:07;;;;;;;;;;;;;;;20.69;83.33;101613.63;5245156;28;19909;-60
2022/06/20 09:59:54;;;;;;;;;;;;;;;21.38;84.24;101614.31;5211895;28;20405;-59
2022/06/20 10:02:44;;;;;;;;;;;;;;;21.45;80.06;101613.91;5228538;28;19908;-61
2022/06/20 10:05:21;;;;;;;;;;;;;;;21.64;79.48;101619.25;5229541;28;19943;-62
2022/06/20 10:07:54;;;;;;;;;;;;;;;21.76;77.91;101617.53;5228539;28;19912;-62
2022/06/20 10:10:43;;;;;;;;;;;;;;;22.15;76.70;101627.03;5228479;28;19908;-64
2022/06/20 10:13:17;;;;;;;;;;;;;;;22.63;76.70;101613.31;5229563;28;19927;-61
2022/06/20 10:16:10;;;;;;;;;;;;;;;22.39;75.00;101610.97;5227979;28;20395;-57
2022/06/20 10:18:44;;;;;;;;;;;;;;;22.26;76.30;101622.06;5211562;28;19915;-60
2022/06/20 10:21:14;;;;;;;;;;;;;;;21.91;77.23;101632.84;5228641;28;19915;-63
2022/06/20 10:23:45;;;;;;;;;;;;;;;21.60;77.95;101632.78;5228030;28;19920;-65
2022/06/20 10:26:34;;;;;;;;;;;;;;;21.48;78.90;101632.50;5228427;28;19909;-62
2022/06/20 10:29:17;;;;;;;;;;;;;;;21.97;78.78;101631.56;5245039;28;19912;-58
2022/06/20 10:31:56;;;;;;;;;;;;;;;22.48;73.43;101638.53;5228248;28;19916;-59
2022/06/20 10:34:30;;;;;;;;;;;;;;;22.78;71.49;101634.94;5227637;28;19934;-61
2022/06/20 10:37:18;;;;;;;;;;;;;;;22.96;73.26;101640.50;5229104;28;19909;-63
2022/06/20 10:39:57;;;;;;;;;;;;;;;23.54;74.01;101634.59;5211983;28;20363;-63
2022/06/20 10:42:30;;;;;;;;;;;;;;;23.37;71.90;101649.16;5211401;28;19909;-61
2022/06/20 10:45:00;;;;;;;;;;;;;;;23.11;71.77;101653.81;5227512;28;19909;-60
2022/06/20 10:47:46;;;;;;;;;;;;;;;22.61;71.95;101659.63;5227918;28;19912;-60
2022/06/20 10:50:19;;;;;;;;;;;;;;;22.24;73.76;101661.69;5211241;28;19908;-58
2022/06/20 10:52:58;;;;;;;;;;;;;;;21.95;75.00;101661.31;5227615;28;19943;-62
2022/06/20 10:55:39;;;;;;;;;;;;;;;21.78;75.11;101663.97;5227393;28;19917;-60
2022/06/20 10:58:12;;;;;;;;;;;;;;;21.51;75.99;101662.13;5211324;28;20287;-60
2022/06/20 11:00:47;;;;;;;;;;;;;;;21.37;73.69;101667.66;5227741;28;19908;-61
2022/06/20 11:03:40;;;;;;;;;;;;;;;21.16;75.45;101674.69;5209055;28;20371;-61
2022/06/20 11:06:26;;;;;;;;;;;;;;;21.57;74.42;101663.63;5182535;28;19909;-62
2022/06/20 11:08:56;;;;;;;;;;;;;;;21.87;74.44;101662.09;5227039;28;19961;-63
2022/06/20 11:11:27;;;;;;;;;;;;;;;21.92;73.93;101664.72;5227452;28;19908;-63
2022/06/20 11:13:57;;;;;;;;;;;;;;;22.42;74.07;101670.06;5227036;28;20502;-61
2022/06/20 11:16:46;;;;;;;;;;;;;;;22.61;72.57;101667.88;5227285;28;19912;-60
2022/06/20 11:19:24;;;;;;;;;;;;;;;22.79;76.05;101655.03;5243929;28;19935;-62
2022/06/20 11:21:54;;;;;;;;;;;;;;;23.02;73.41;101650.25;5226888;28;20105;-62
2022/06/20 11:24:28;;;;;;;;;;;;;;;22.76;72.95;101656.47;5226830;28;19947;-64
2022/06/20 11:27:18;;;;;;;;;;;;;;;22.64;73.69;101664.50;5227174;28;19913;-60
2022/06/20 11:29:49;;;;;;;;;;;;;;;23.07;71.36;101658.34;5227749;28;20456;-60
2022/06/20 11:32:32;;;;;;;;;;;;;;;23.56;69.44;101644.16;5228309;28;19908;-61
2022/06/20 11:35:08;;;;;;;;;;;;;;;23.37;69.50;101649.16;5227947;28;20292;-61
2022/06/20 11:37:44;;;;;;;;;;;;;;;23.26;71.17;101638.75;5210354;28;19913;-60
2022/06/20 11:40:15;;;;;;;;;;;;;;;23.62;70.83;101644.00;5226747;28;19999;-62
2022/06/20 11:43:04;;;;;;;;;;;;;;;23.30;70.99;101646.06;5227705;28;20023;-63
2022/06/20 11:45:40;;;;;;;;;;;;;;;22.86;71.63;101653.41;5227832;28;19908;-63
2022/06/20 11:48:33;;;;;;;;;;;;;;;23.00;72.41;101647.00;5226645;28;19948;-60
2022/06/20 11:51:12;;;;;;;;;;;;;;;23.30;72.68;101645.25;5209712;28;19913;-63
2022/06/20 11:53:50;;;;;;;;;;;;;;;22.64;71.49;101642.47;5226264;28;20371;-61
2022/06/20 11:56:26;;;;;;;;;;;;;;;22.52;71.83;101647.78;5225924;28;19909;-60
2022/06/20 11:59:17;;;;;;;;;;;;;;;22.56;73.48;101633.03;5226608;28;20443;-63
2022/06/20 12:01:53;;;;;;;;;;;;;;;22.56;68.91;101646.00;5226289;28;19909;-61
2022/06/20 12:04:24;;;;;;;;;;;;;;;22.71;69.64;101629.06;5226022;28;20299;-62
2022/06/20 12:07:09;;;;;;;;;;;;;;;23.43;66.48;101628.53;5226036;28;19908;-59
2022/06/20 12:09:40;;;;;;;;;;;;;;;23.73;68.56;101626.78;5209333;28;20261;-63
2022/06/20 12:12:24;;;;;;;;;;;;;;;23.62;69.43;101635.72;5226060;28;19916;-63
2022/06/20 12:15:04;;;;;;;;;;;;;;;23.33;69.38;101628.88;5226571;28;19919;-63
2022/06/20 12:17:47;;;;;;;;;;;;;;;23.12;68.86;101636.94;5225999;28;20291;-63
2022/06/20 12:23:56;;;;;;;;;;;;;;;23.17;66.88;101630.47;5221629;28;19954;-62
2022/06/20 12:26:32;;;;;;;;;;;;;;;23.22;67.21;101630.31;5208887;28;20031;-65
2022/06/20 12:29:12;;;;;;;;;;;;;;;23.22;67.73;101625.63;5208956;28;20384;-60
2022/06/20 12:31:45;;;;;;;;;;;;;;;23.90;67.96;101625.97;5209037;28;19952;-62
2022/06/20 12:34:18;;;;;;;;;;;;;;;24.27;68.36;101627.16;5208672;28;19952;-63
2022/06/20 12:37:18;;;;;;;;;;;;;;;24.18;67.47;101629.94;5225452;28;20003;-60
2022/06/20 12:40:07;;;;;;;;;;;;;;;23.62;64.34;101627.47;5196105;28;19919;-63
2022/06/20 12:42:49;;;;;;;;;;;;;;;23.61;63.93;101623.88;5242150;28;20390;-63
2022/06/20 12:45:23;;;;;;;;;;;;;;;23.79;63.80;101627.44;5225040;28;20013;-63
2022/06/20 12:48:05;;;;;;;;;;;;;;;23.44;64.37;101632.13;5225563;28;19989;-60
2022/06/20 12:50:45;;;;;;;;;;;;;;;23.30;64.74;101635.03;5225520;28;19908;-63
2022/06/20 12:53:39;;;;;;;;;;;;;;;23.91;64.94;101627.59;5225008;28;19927;-63